createdAt,value
2019-05-25T00:00:55.574Z,99943.23
2019-05-25T00:03:59.307Z,99949.98
2019-05-25T00:07:02.940Z,99950.88
2019-05-25T00:10:08.228Z,99952.45
2019-05-25T00:13:11.889Z,99949.70
2019-05-25T00:16:15.606Z,99943.80
2019-05-25T00:19:19.520Z,99946.57
2019-05-25T00:22:23.128Z,99945.09
2019-05-25T00:25:26.784Z,99952.06
2019-05-25T00:28:30.599Z,99956.09
2019-05-25T00:31:34.245Z,99955.27
2019-05-25T00:34:37.935Z,99959.17
2019-05-25T00:37:41.668Z,99962.75
2019-05-25T00:40:45.278Z,99963.94
2019-05-25T00:43:48.917Z,99969.27
2019-05-25T00:46:52.546Z,99963.56
2019-05-25T00:49:56.232Z,99966.52
2019-05-25T00:52:59.961Z,99964.20
2019-05-25T00:56:03.617Z,99964.52
2019-05-25T00:59:07.293Z,99965.86
2019-05-25T01:02:10.963Z,99955.72
2019-05-25T01:05:15.176Z,99964.58
2019-05-25T01:08:18.839Z,99965.13
2019-05-25T01:11:22.563Z,99966.96
2019-05-25T01:14:26.215Z,99966.89
2019-05-25T01:17:31.690Z,99956.80
2019-05-25T01:20:35.360Z,99956.61
2019-05-25T01:23:38.992Z,99958.75
2019-05-25T01:26:42.618Z,99965.19
2019-05-25T01:29:46.294Z,99964.86
2019-05-25T01:32:49.922Z,99972.64
2019-05-25T01:35:53.548Z,99966.98
2019-05-25T01:38:57.174Z,99968.00
2019-05-25T01:42:00.920Z,99969.21
2019-05-25T01:45:09.272Z,99965.72
2019-05-25T01:48:12.967Z,99972.03
2019-05-25T01:51:16.634Z,99970.61
2019-05-25T01:54:20.298Z,99976.34
2019-05-25T01:57:23.913Z,99970.23
2019-05-25T02:00:28.027Z,99967.83
2019-05-25T02:03:31.640Z,99976.54
2019-05-25T02:06:35.339Z,99973.08
2019-05-25T02:09:38.929Z,99967.78
2019-05-25T02:12:42.585Z,99967.75
2019-05-25T02:15:46.532Z,99967.06
2019-05-25T02:18:50.187Z,99972.38
2019-05-25T02:21:53.843Z,99979.91
2019-05-25T02:24:57.469Z,99978.23
2019-05-25T02:28:01.138Z,99984.52
2019-05-25T02:31:04.879Z,99992.08
2019-05-25T02:34:08.458Z,99996.73
2019-05-25T02:37:12.066Z,99997.78
2019-05-25T02:40:15.719Z,100006.64
2019-05-25T02:43:19.303Z,100000.99
2019-05-25T02:46:22.933Z,100001.73
2019-05-25T02:49:26.661Z,99999.42
2019-05-25T02:52:30.194Z,100009.81
2019-05-25T02:55:35.178Z,100013.16
2019-05-25T02:58:39.047Z,100014.95
2019-05-25T03:01:42.700Z,100011.08
2019-05-25T03:04:46.322Z,100013.64
2019-05-25T03:07:53.756Z,100020.05
2019-05-25T03:10:58.623Z,100016.89
2019-05-25T03:14:03.327Z,100021.85
2019-05-25T03:17:06.884Z,100014.59
2019-05-25T03:20:11.155Z,100019.75
2019-05-25T03:23:14.737Z,100030.48
2019-05-25T03:26:18.264Z,100034.00
2019-05-25T03:29:21.850Z,100037.42
2019-05-25T03:32:25.575Z,100036.73
2019-05-25T03:35:29.215Z,100038.42
2019-05-25T03:38:32.788Z,100042.48
2019-05-25T03:41:36.923Z,100051.56
2019-05-25T03:44:40.539Z,100056.80
2019-05-25T03:47:44.098Z,100059.06
2019-05-25T03:50:47.670Z,100058.30
2019-05-25T03:53:51.221Z,100058.77
2019-05-25T03:56:54.804Z,100059.61
2019-05-25T03:59:58.337Z,100060.33
2019-05-25T04:03:02.070Z,100057.19
2019-05-25T04:06:05.607Z,100055.80
2019-05-25T04:09:09.173Z,100057.03
2019-05-25T04:12:12.715Z,100057.69
2019-05-25T04:15:16.359Z,100065.45
2019-05-25T04:18:19.887Z,100070.77
2019-05-25T04:21:23.467Z,100071.98
2019-05-25T04:24:27.000Z,100076.73
2019-05-25T04:27:30.585Z,100076.83
2019-05-25T04:30:34.164Z,100070.98
2019-05-25T04:33:37.744Z,100082.42
2019-05-25T04:36:41.345Z,100088.64
2019-05-25T04:39:44.889Z,100088.13
2019-05-25T04:42:48.456Z,100094.14
2019-05-25T04:45:51.988Z,100089.91
2019-05-25T04:48:55.565Z,100093.31
2019-05-25T04:51:59.092Z,100101.90
2019-05-25T04:55:02.725Z,100107.78
2019-05-25T04:58:06.242Z,100110.95
2019-05-25T05:01:09.841Z,100124.23
2019-05-25T05:04:13.451Z,100123.45
2019-05-25T05:07:17.026Z,100124.45
2019-05-25T05:10:20.797Z,100132.41
2019-05-25T05:13:24.361Z,100131.95
2019-05-25T05:16:27.942Z,100128.27
2019-05-25T05:19:31.544Z,100133.60
2019-05-25T05:22:35.113Z,100138.75
2019-05-25T05:25:38.743Z,100140.02
2019-05-25T05:28:42.296Z,100136.97
2019-05-25T05:31:45.865Z,100133.14
2019-05-25T05:34:49.513Z,100135.06
2019-05-25T05:37:53.325Z,100135.98
2019-05-25T05:40:58.664Z,100142.45
2019-05-25T05:44:04.493Z,100142.22
2019-05-25T05:47:11.185Z,100137.69
2019-05-25T05:50:16.987Z,100142.51
2019-05-25T05:53:23.055Z,100142.32
2019-05-25T05:56:26.718Z,100149.13
2019-05-25T05:59:30.315Z,100149.03
2019-05-25T06:02:33.967Z,100152.95
2019-05-25T06:05:37.788Z,100157.27
2019-05-25T06:08:41.439Z,100155.91
2019-05-25T06:11:45.038Z,100163.59
2019-05-25T06:14:48.781Z,100161.16
2019-05-25T06:17:52.413Z,100165.39
2019-05-25T06:20:56.043Z,100163.00
2019-05-25T06:23:59.649Z,100163.16
2019-05-25T06:27:03.304Z,100162.36
2019-05-25T06:30:07.899Z,100169.72
2019-05-25T06:33:11.542Z,100167.44
2019-05-25T06:36:15.210Z,100176.67
2019-05-25T06:39:19.509Z,100172.20
2019-05-25T06:42:23.161Z,100176.58
2019-05-25T06:45:26.793Z,100178.39
2019-05-25T06:48:30.432Z,100179.87
2019-05-25T06:51:34.069Z,100175.13
2019-05-25T06:54:37.724Z,100177.91
2019-05-25T06:57:43.605Z,100178.64
2019-05-25T07:00:46.773Z,100181.61
2019-05-25T07:03:50.376Z,100185.95
2019-05-25T07:06:54.008Z,100183.95
2019-05-25T07:09:57.670Z,100172.86
2019-05-25T07:13:01.662Z,100178.15
2019-05-25T07:16:05.304Z,100181.14
2019-05-25T07:19:08.934Z,100185.64
2019-05-25T07:22:12.796Z,100188.41
2019-05-25T07:25:20.023Z,100191.91
2019-05-25T07:28:22.033Z,100193.41
2019-05-25T07:31:25.848Z,100207.34
2019-05-25T07:34:29.451Z,100219.94
2019-05-25T07:37:33.091Z,100218.41
2019-05-25T07:40:36.738Z,100216.13
2019-05-25T07:43:40.353Z,100210.20
2019-05-25T07:46:44.007Z,100215.67
2019-05-25T07:49:47.677Z,100217.16
2019-05-25T07:52:51.385Z,100222.71
2019-05-25T07:55:55.083Z,100225.50
2019-05-25T07:58:58.727Z,100229.34
2019-05-25T08:02:02.382Z,100226.86
2019-05-25T08:05:07.133Z,100234.34
2019-05-25T08:08:10.784Z,100238.80
2019-05-25T08:11:14.449Z,100237.12
2019-05-25T08:14:18.063Z,100240.69
2019-05-25T08:17:21.707Z,100247.45
2019-05-25T08:20:25.326Z,100247.82
2019-05-25T08:23:29.002Z,100241.40
2019-05-25T08:26:32.664Z,100240.22
2019-05-25T08:29:36.326Z,100237.87
2019-05-25T08:32:39.982Z,100242.68
2019-05-25T08:35:46.433Z,100240.74
2019-05-25T08:38:48.965Z,100242.54
2019-05-25T08:41:52.568Z,100246.70
2019-05-25T08:44:56.225Z,100245.63
2019-05-25T08:47:59.845Z,100235.64
2019-05-25T08:51:03.548Z,100233.16
2019-05-25T08:54:07.198Z,100232.13
2019-05-25T08:57:14.842Z,100236.16
2019-05-25T09:00:16.558Z,100240.47
2019-05-25T09:03:20.186Z,100236.54
2019-05-25T09:06:23.796Z,100241.95
2019-05-25T09:09:27.465Z,100242.34
2019-05-25T09:12:31.088Z,100238.81
2019-05-25T09:15:34.737Z,100244.47
2019-05-25T09:18:38.400Z,100244.25
2019-05-25T09:21:42.042Z,100237.13
2019-05-25T09:24:45.661Z,100235.80
2019-05-25T09:27:50.013Z,100235.78
2019-05-25T09:30:55.247Z,100240.84
2019-05-25T09:33:58.872Z,100245.08
2019-05-25T09:37:02.511Z,100242.34
2019-05-25T09:40:07.239Z,100239.66
2019-05-25T09:43:10.876Z,100242.45
2019-05-25T09:46:14.495Z,100244.83
2019-05-25T09:49:18.168Z,100250.22
2019-05-25T09:52:21.807Z,100246.38
2019-05-25T09:55:25.637Z,100243.83
2019-05-25T09:58:29.273Z,100239.07
2019-05-25T10:01:32.892Z,100241.41
2019-05-25T10:04:37.060Z,100244.32
2019-05-25T10:07:40.687Z,100237.07
2019-05-25T10:10:44.341Z,100237.04
2019-05-25T10:13:47.990Z,100234.01
2019-05-25T10:16:51.640Z,100240.02
2019-05-25T10:19:55.284Z,100238.73
2019-05-25T10:22:58.971Z,100234.55
2019-05-25T10:26:02.707Z,100221.13
2019-05-25T10:29:06.358Z,100221.42
2019-05-25T10:32:10.012Z,100219.38
2019-05-25T10:35:14.565Z,100224.11
2019-05-25T10:38:18.239Z,100227.55
2019-05-25T10:41:21.890Z,100220.70
2019-05-25T10:44:25.514Z,100218.72
2019-05-25T10:47:29.190Z,100220.73
2019-05-25T10:50:32.814Z,100213.07
2019-05-25T10:53:36.502Z,100212.32
2019-05-25T10:56:40.118Z,100216.86
2019-05-25T10:59:52.958Z,100212.90
2019-05-25T11:02:51.688Z,100206.48
2019-05-25T11:05:57.145Z,100210.50
2019-05-25T11:09:00.740Z,100209.64
2019-05-25T11:12:04.644Z,100212.97
2019-05-25T11:15:08.969Z,100214.15
2019-05-25T11:18:14.108Z,100202.13
2019-05-25T11:21:17.814Z,100203.42
2019-05-25T11:24:21.462Z,100202.84
2019-05-25T11:27:25.101Z,100197.38
2019-05-25T11:30:28.755Z,100197.68
2019-05-25T11:33:32.369Z,100192.32
2019-05-25T11:36:36.189Z,100200.29
2019-05-25T11:39:39.796Z,100192.99
2019-05-25T11:42:45.066Z,100192.25
2019-05-25T11:45:48.690Z,100188.30
2019-05-25T11:48:52.341Z,100189.66
2019-05-25T11:51:57.475Z,100191.36
2019-05-25T11:55:01.155Z,100188.36
2019-05-25T11:58:05.125Z,100191.42
2019-05-25T12:01:08.817Z,100178.05
2019-05-25T12:04:12.475Z,100170.72
2019-05-25T12:07:16.181Z,100173.36
2019-05-25T12:10:21.468Z,100178.15
2019-05-25T12:13:25.140Z,100172.22
2019-05-25T12:16:28.783Z,100176.93
2019-05-25T12:19:32.434Z,100181.27
2019-05-25T12:22:37.570Z,100188.25
2019-05-25T12:25:41.234Z,100179.27
2019-05-25T12:28:44.850Z,100169.42
2019-05-25T12:31:48.615Z,100168.09
2019-05-25T12:34:52.254Z,100151.73
2019-05-25T12:37:55.907Z,100156.20
2019-05-25T12:40:59.572Z,100154.81
2019-05-25T12:44:03.411Z,100147.25
2019-05-25T12:47:07.021Z,100153.70
2019-05-25T12:50:11.024Z,100152.97
2019-05-25T12:53:14.751Z,100159.96
2019-05-25T12:56:18.370Z,100162.29
2019-05-25T12:59:22.019Z,100135.84
2019-05-25T13:02:25.696Z,100145.61
2019-05-25T13:05:34.133Z,100144.39
2019-05-25T13:08:34.667Z,100139.05
2019-05-25T13:11:38.334Z,100154.80
2019-05-25T13:14:41.985Z,100152.55
2019-05-25T13:17:45.669Z,100162.41
2019-05-25T13:20:49.283Z,100151.79
2019-05-25T13:23:52.955Z,100146.41
2019-05-25T13:26:56.595Z,100147.01
2019-05-25T13:30:03.000Z,100144.28
2019-05-25T13:33:05.604Z,100157.08
2019-05-25T13:36:09.335Z,100167.80
2019-05-25T13:39:13.061Z,100161.79
2019-05-25T13:42:16.720Z,100156.20
2019-05-25T13:45:21.969Z,100149.81
2019-05-25T13:48:25.610Z,100150.05
2019-05-25T13:51:29.364Z,100143.45
2019-05-25T13:54:33.034Z,100144.55
2019-05-25T13:57:36.698Z,100135.09
2019-05-25T14:00:40.401Z,100140.17
2019-05-25T14:03:44.050Z,100141.27
2019-05-25T14:06:47.779Z,100141.31
2019-05-25T14:09:51.429Z,100134.39
2019-05-25T14:12:56.673Z,100125.91
2019-05-25T14:16:07.418Z,100130.03
2019-05-25T14:19:11.721Z,100128.05
2019-05-25T14:22:15.393Z,100129.66
2019-05-25T14:25:19.097Z,100133.64
2019-05-25T14:28:22.686Z,100124.63
2019-05-25T14:31:26.431Z,100125.42
2019-05-25T14:34:30.129Z,100124.34
2019-05-25T14:37:36.488Z,100121.56
2019-05-25T14:40:40.144Z,100121.53
2019-05-25T14:43:46.956Z,100119.89
2019-05-25T14:46:50.508Z,100127.92
2019-05-25T14:49:54.358Z,100118.96
2019-05-25T14:52:57.974Z,100118.98
2019-05-25T14:56:01.707Z,100123.45
2019-05-25T14:59:05.556Z,100122.19
2019-05-25T15:02:09.289Z,100123.91
2019-05-25T15:05:13.366Z,100121.16
2019-05-25T15:08:17.045Z,100122.14
2019-05-25T15:11:20.669Z,100124.02
2019-05-25T15:14:24.335Z,100128.63
2019-05-25T15:17:28.006Z,100123.95
2019-05-25T15:20:31.776Z,100120.27
2019-05-25T15:23:35.437Z,100118.56
2019-05-25T15:26:39.054Z,100124.91
2019-05-25T15:29:42.717Z,100124.59
2019-05-25T15:32:46.404Z,100130.08
2019-05-25T15:35:50.057Z,100129.86
2019-05-25T15:38:53.787Z,100131.59
2019-05-25T15:41:57.444Z,100122.23
2019-05-25T15:45:01.087Z,100128.45
2019-05-25T15:48:05.173Z,100130.45
2019-05-25T15:51:08.817Z,100136.80
2019-05-25T15:54:12.453Z,100136.52
2019-05-25T15:57:16.079Z,100138.69
2019-05-25T16:00:21.357Z,100138.47
2019-05-25T16:03:24.999Z,100140.84
2019-05-25T16:06:28.648Z,100135.59
2019-05-25T16:09:32.280Z,100137.78
2019-05-25T16:12:35.934Z,100134.45
2019-05-25T16:15:40.509Z,100136.67
2019-05-25T16:18:44.135Z,100135.18
2019-05-25T16:21:47.856Z,100134.57
2019-05-25T16:24:51.557Z,100130.83
2019-05-25T16:27:55.170Z,100130.84
2019-05-25T16:30:58.812Z,100126.34
2019-05-25T16:34:02.462Z,100132.98
2019-05-25T16:37:06.313Z,100131.86
2019-05-25T16:40:10.349Z,100135.70
2019-05-25T16:43:14.104Z,100134.05
2019-05-25T16:46:17.743Z,100134.86
2019-05-25T16:49:21.445Z,100137.78
2019-05-25T16:52:25.152Z,100139.61
2019-05-25T16:55:28.819Z,100141.02
2019-05-25T16:58:32.560Z,100146.05
2019-05-25T17:01:47.607Z,100144.15
2019-05-25T17:04:41.716Z,100148.22
2019-05-25T17:07:45.665Z,100155.28
2019-05-25T17:10:49.787Z,100151.98
2019-05-25T17:13:53.585Z,100152.13
2019-05-25T17:16:57.291Z,100153.03
2019-05-25T17:20:01.012Z,100153.51
2019-05-25T17:23:04.729Z,100155.42
2019-05-25T17:26:08.404Z,100163.02
2019-05-25T17:29:12.038Z,100161.58
2019-05-25T17:32:15.689Z,100169.66
2019-05-25T17:35:19.358Z,100169.16
2019-05-25T17:38:23.056Z,100172.16
2019-05-25T17:41:26.719Z,100175.22
2019-05-25T17:44:30.382Z,100175.02
2019-05-25T17:47:34.017Z,100167.70
2019-05-25T17:50:37.853Z,100178.52
2019-05-25T17:53:41.574Z,100182.58
2019-05-25T17:56:45.264Z,100179.13
2019-05-25T17:59:48.923Z,100176.14
2019-05-25T18:02:52.556Z,100179.43
2019-05-25T18:05:56.221Z,100185.82
2019-05-25T18:08:59.948Z,100187.14
2019-05-25T18:12:03.740Z,100187.14
2019-05-25T18:15:09.518Z,100185.77
2019-05-25T18:18:13.129Z,100196.25
2019-05-25T18:21:16.911Z,100199.82
2019-05-25T18:24:20.660Z,100198.59
2019-05-25T18:27:24.256Z,100204.91
2019-05-25T18:30:29.559Z,100204.02
2019-05-25T18:33:33.439Z,100203.44
2019-05-25T18:36:37.066Z,100200.88
2019-05-25T18:39:40.728Z,100206.45
2019-05-25T18:42:44.306Z,100204.74
2019-05-25T18:45:47.965Z,100197.63
2019-05-25T18:48:51.518Z,100200.38
2019-05-25T18:51:55.182Z,100199.61
2019-05-25T18:54:58.714Z,100199.84
2019-05-25T18:58:02.355Z,100208.27
2019-05-25T19:01:05.957Z,100214.30
2019-05-25T19:04:09.615Z,100214.48
2019-05-25T19:07:13.238Z,100214.48
2019-05-25T19:10:17.658Z,100216.45
2019-05-25T19:13:21.201Z,100228.56
2019-05-25T19:16:24.759Z,100222.71
2019-05-25T19:19:28.308Z,100240.98
2019-05-25T19:22:31.876Z,100247.18
2019-05-25T19:25:35.462Z,100254.85
2019-05-25T19:28:39.108Z,100259.56
2019-05-25T19:31:42.649Z,100261.36
2019-05-25T19:34:59.126Z,100260.53
2019-05-25T19:37:51.489Z,100261.05
2019-05-25T19:40:55.041Z,100271.17
2019-05-25T19:43:58.619Z,100276.78
2019-05-25T19:47:02.517Z,100282.85
2019-05-25T19:50:07.418Z,100289.96
2019-05-25T19:53:11.135Z,100288.45
2019-05-25T19:56:14.679Z,100288.23
2019-05-25T19:59:18.348Z,100289.38
2019-05-25T20:02:21.944Z,100296.43
2019-05-25T20:05:25.580Z,100301.31
2019-05-25T20:08:29.183Z,100300.53
2019-05-25T20:11:32.896Z,100305.83
2019-05-25T20:14:36.574Z,100306.38
2019-05-25T20:17:40.220Z,100311.06
2019-05-25T20:20:43.810Z,100318.02
2019-05-25T20:23:47.418Z,100320.75
2019-05-25T20:26:50.953Z,100318.02
2019-05-25T20:29:54.517Z,100323.13
2019-05-25T20:32:59.742Z,100318.09
2019-05-25T20:36:03.339Z,100321.83
2019-05-25T20:39:07.787Z,100323.48
2019-05-25T20:42:14.806Z,100322.13
2019-05-25T20:45:16.843Z,100324.64
2019-05-25T20:48:20.446Z,100321.22
2019-05-25T20:51:24.053Z,100327.03
2019-05-25T20:54:27.732Z,100339.55
2019-05-25T20:57:31.307Z,100338.30
2019-05-25T21:00:35.029Z,100337.25
2019-05-25T21:03:40.245Z,100336.52
2019-05-25T21:06:43.827Z,100324.10
2019-05-25T21:09:47.719Z,100324.32
2019-05-25T21:12:51.331Z,100329.61
2019-05-25T21:15:54.848Z,100331.11
2019-05-25T21:18:58.441Z,100338.70
2019-05-25T21:22:02.021Z,100337.46
2019-05-25T21:25:10.135Z,100343.89
2019-05-25T21:28:13.803Z,100350.19
2019-05-25T21:31:17.336Z,100344.46
2019-05-25T21:34:20.944Z,100352.87
2019-05-25T21:37:24.552Z,100355.19
2019-05-25T21:40:28.164Z,100361.25
2019-05-25T21:43:31.790Z,100359.63
2019-05-25T21:46:35.329Z,100359.88
2019-05-25T21:49:40.584Z,100364.67
2019-05-25T21:52:44.137Z,100355.28
2019-05-25T21:55:47.717Z,100357.66
2019-05-25T21:58:51.245Z,100357.37
2019-05-25T22:01:54.847Z,100358.56
2019-05-25T22:04:58.388Z,100364.49
2019-05-25T22:08:01.992Z,100364.97
2019-05-25T22:11:05.686Z,100350.42
2019-05-25T22:14:09.273Z,100351.86
2019-05-25T22:17:12.844Z,100355.16
2019-05-25T22:20:17.025Z,100356.05
2019-05-25T22:23:21.478Z,100348.27
2019-05-25T22:26:25.418Z,100338.94
2019-05-25T22:29:29.018Z,100334.27
2019-05-25T22:32:33.023Z,100328.16
2019-05-25T22:35:36.632Z,100332.91
2019-05-25T22:38:40.315Z,100334.27
2019-05-25T22:41:46.099Z,100333.97
2019-05-25T22:44:49.676Z,100335.48
2019-05-25T22:47:53.340Z,100335.08
2019-05-25T22:50:56.891Z,100332.69
2019-05-25T22:54:00.443Z,100337.84
2019-05-25T22:57:05.470Z,100336.42
2019-05-25T23:00:11.298Z,100335.05
2019-05-25T23:03:14.850Z,100332.82
2019-05-25T23:06:18.557Z,100330.13
2019-05-25T23:09:22.177Z,100326.66
2019-05-25T23:12:25.736Z,100323.92
2019-05-25T23:15:29.305Z,100315.00
2019-05-25T23:18:32.909Z,100313.24
2019-05-25T23:21:36.485Z,100310.93
2019-05-25T23:24:40.083Z,100305.40
2019-05-25T23:27:43.797Z,100291.84
2019-05-25T23:30:47.294Z,100295.95
2019-05-25T23:33:50.930Z,100298.78
2019-05-25T23:36:54.509Z,100304.24
2019-05-25T23:39:58.102Z,100302.05
2019-05-25T23:43:01.707Z,100297.54
2019-05-25T23:46:05.472Z,100293.86
2019-05-25T23:49:09.073Z,100297.84
2019-05-25T23:52:12.942Z,100287.76
2019-05-25T23:55:16.750Z,100295.13
2019-05-25T23:58:20.311Z,100293.75
